Portada
METAR-TAF:

METAR-TAF

Aeroports :

Rarotonga, Illes Cook

latitud: 21-12S, longitud: 159-49W, altitud: 7 m

Observació

L'informe es va fer fa 58 minuts, a les 18:00 UTC
Vent 3 kt del Sud-Est
Temperatura 25°C
Humitat 89%
Pressió 1018 hPa
Visibilitat 10 km o més
Escasses núvols a una alçada de 2000 ft

METAR: NCRG 231800Z 13003KT 9999 FEW020 25/23 Q1018 RMK DEW

Hora: 08:58 (18:58 UTC)

Pronòstic

L'informe es va fer fa 1 hora i 57 minuts, a les 17:01 UTC
Pronòstic vàlid del 23 a les 18 UTC al 24 a les 18 UTC
Vent 7 kt del Nord-Est
Visibilitat 10 km o més
Núvols disperses a una alçada de 1800 ft
Probabilitat 40% :
Temporalment
l' 24 a les 08 UTC al 24 a les 16 UTC
Visibilitat: 5000 m
Cel ennuvolat a una alçada de 1500 ft
xàfecs de pluja

TAF: NCRG 231701Z 2318/2418 04007KT 9999 SCT018 PROB40 TEMPO 2408/2416 5000 SHRA BKN015

Observacions i pronòstics meteorològics de més de 4000 aeroports (METAR i TAF).

Les estacions disponibles són els punts grocs i vermells al mapa.

Posi el ratolí al punt desitjat per veure el nom de l'estació.

Feu clic per veure les observacions i els pronòstics meteorològics.

Per canviar el mapa: feu clic els botons verds amb una creu de color negre per apropar; al botó verd amb un guió per allunyar la imatge; o en les fletxes verdes per a mapes adjacents.


METAR-TAF: